Time;durP1;ratioP1;P1;durP2;ratioP2;P2;SDS_P1;SDS_P2;PMS_P1;PMS_P2;Temp;Humidity;BMP_temperature;BMP_pressure;BME280_temperature;BME280_humidity;BME280_pressure;Samples;Min_cycle;Max_cycle;Signal;HPM_P1;HPM_P2
2022/04/16 00:02:02;;;;;;;5.20;3.80;;;3.60;1.00;4.50;94959.00;;;;7388374;19;20385;-77
2022/04/16 00:04:35;;;;;;;5.40;3.80;;;3.60;1.00;4.60;94950.00;;;;7390813;19;20141;-77
2022/04/16 00:07:03;;;;;;;4.60;3.87;;;3.70;1.00;4.80;94962.00;;;;7390628;19;20125;-77
2022/04/16 00:09:30;;;;;;;6.07;4.50;;;3.80;1.00;4.70;94947.00;;;;7388514;19;20133;-77
2022/04/16 00:12:05;;;;;;;4.27;3.73;;;3.80;1.00;4.60;94952.00;;;;7393871;19;20129;-78
2022/04/16 00:14:32;;;;;;;7.27;4.13;;;3.80;1.00;4.80;94916.00;;;;7390310;19;20649;-77
2022/04/16 00:16:59;;;;;;;5.93;4.40;;;3.90;1.00;4.60;94935.00;;;;7392135;19;20174;-77
2022/04/16 00:19:32;;;;;;;5.77;4.03;;;3.90;99.90;4.60;94911.00;;;;7399659;19;20129;-77
2022/04/16 00:22:10;;;;;;;6.67;4.00;;;3.90;99.90;4.50;94947.00;;;;7395005;19;20654;-77
2022/04/16 00:24:51;;;;;;;4.67;3.90;;;3.70;99.90;4.40;94926.00;;;;7396361;19;20204;-77
2022/04/16 00:27:18;;;;;;;4.00;3.60;;;3.70;99.90;4.50;94904.00;;;;7397713;19;20636;-76
2022/04/16 00:29:52;;;;;;;6.47;3.53;;;3.70;99.90;4.50;94942.00;;;;7401452;19;20226;-77
2022/04/16 00:32:21;;;;;;;5.27;4.10;;;3.70;99.90;4.40;94919.00;;;;7398981;19;20461;-77
2022/04/16 00:34:48;;;;;;;3.80;3.40;;;3.70;99.90;4.30;94941.00;;;;7397092;19;20144;-77
2022/04/16 00:37:21;;;;;;;6.53;3.83;;;3.50;99.90;4.40;94906.00;;;;7395011;19;20486;-77
2022/04/16 00:39:48;;;;;;;4.83;4.03;;;3.60;99.90;4.60;94935.00;;;;7390142;19;20130;-77
2022/04/16 00:42:23;;;;;;;6.10;3.70;;;3.70;99.90;4.60;94935.00;;;;7394106;19;20145;-77
2022/04/16 00:44:56;;;;;;;5.47;4.00;;;3.80;99.90;4.60;94931.00;;;;7400568;19;20144;-77
2022/04/16 00:47:23;;;;;;;4.27;3.87;;;3.80;99.90;4.50;94926.00;;;;7398192;19;20149;-78
2022/04/16 00:49:51;;;;;;;5.37;3.90;;;3.80;99.90;4.60;94911.00;;;;7396755;19;20135;-77
2022/04/16 00:52:25;;;;;;;4.67;3.83;;;3.70;99.90;4.70;94938.00;;;;7396823;19;20192;-77
2022/04/16 00:54:55;;;;;;;6.07;3.67;;;3.80;99.90;4.60;94946.00;;;;7397890;19;20150;-78
2022/04/16 00:57:26;;;;;;;4.50;3.57;;;3.80;37.60;4.60;94948.00;;;;7394893;19;20121;-77
2022/04/16 01:00:06;;;;;;;4.87;3.47;;;3.80;1.00;4.60;94931.00;;;;7398538;19;20136;-77
2022/04/16 01:02:37;;;;;;;6.13;3.43;;;3.80;1.00;4.80;94918.00;;;;7400141;19;20169;-75
2022/04/16 01:05:12;;;;;;;3.93;3.50;;;4.00;1.00;4.70;94930.00;;;;7397029;19;20133;-74
2022/04/16 01:07:57;;;;;;;3.67;3.33;;;4.00;1.00;4.40;94914.00;;;;7398514;19;20554;-75
2022/04/16 01:10:33;;;;;;;4.33;3.57;;;4.00;1.00;4.50;94923.00;;;;7394196;19;20132;-75
2022/04/16 01:13:04;;;;;;;6.27;3.80;;;3.90;1.00;4.70;94916.00;;;;7399838;19;20208;-75
2022/04/16 01:15:39;;;;;;;3.20;2.90;;;3.90;1.00;4.60;94928.00;;;;7394595;19;20125;-75
2022/04/16 01:18:07;;;;;;;4.03;3.57;;;3.90;1.00;4.70;94899.00;;;;7397317;19;20127;-75
2022/04/16 01:20:41;;;;;;;4.03;3.47;;;4.00;1.00;4.60;94917.00;;;;7397034;19;20149;-75
2022/04/16 01:23:21;;;;;;;4.63;3.60;;;4.00;1.00;4.70;94903.00;;;;7397962;19;20139;-74
2022/04/16 01:25:48;;;;;;;4.30;3.37;;;4.00;1.00;4.60;94920.00;;;;7396469;19;20481;-75
2022/04/16 01:28:22;;;;;;;4.17;3.10;;;4.00;1.00;4.50;94938.00;;;;7394575;19;20555;-75
2022/04/16 01:30:49;;;;;;;4.03;3.10;;;3.90;1.00;4.30;94905.00;;;;7395634;19;20135;-74
2022/04/16 01:33:17;;;;;;;5.50;3.37;;;3.80;1.00;4.30;94924.00;;;;7395511;19;20203;-74
2022/04/16 01:35:53;;;;;;;3.50;3.20;;;3.70;1.00;4.00;94910.00;;;;7395402;19;20128;-75
2022/04/16 01:38:21;;;;;;;4.03;3.40;;;3.50;1.00;3.80;94920.00;;;;7399606;19;20156;-75
2022/04/16 01:40:48;;;;;;;3.83;3.20;;;3.40;1.00;3.90;94907.00;;;;7394465;19;20137;-74
2022/04/16 01:43:22;;;;;;;5.63;3.60;;;3.30;1.00;4.00;94903.00;;;;7393037;19;20507;-75
2022/04/16 01:45:50;;;;;;;4.27;3.60;;;3.30;99.90;4.00;94932.00;;;;7395942;19;20201;-75
2022/04/16 01:48:18;;;;;;;4.70;3.97;;;3.30;99.90;4.20;94860.00;;;;7394792;19;20605;-75
2022/04/16 01:50:53;;;;;;;4.50;3.97;;;3.40;99.90;4.40;94930.00;;;;7395442;19;20599;-75
2022/04/16 01:53:22;;;;;;;4.47;3.60;;;3.60;99.90;4.30;94904.00;;;;7400856;19;20150;-74
2022/04/16 01:55:49;;;;;;;6.27;3.60;;;3.60;1.00;4.10;94885.00;;;;7399015;19;20658;-75
2022/04/16 01:58:23;;;;;;;4.50;3.50;;;3.50;1.00;4.20;94908.00;;;;7396015;19;20584;-75
2022/04/16 02:00:50;;;;;;;4.07;3.60;;;3.60;1.00;4.40;94937.00;;;;7395417;19;20640;-76
2022/04/16 02:03:19;;;;;;;4.33;3.93;;;3.70;1.00;4.50;94925.00;;;;7392677;19;20133;-75
2022/04/16 02:05:53;;;;;;;5.93;3.67;;;3.80;1.00;4.50;94921.00;;;;7394709;19;20158;-75
2022/04/16 02:08:20;;;;;;;4.53;3.83;;;3.80;1.00;4.50;94921.00;;;;7394431;19;20154;-75
2022/04/16 02:10:48;;;;;;;4.07;3.50;;;3.80;99.90;4.50;94928.00;;;;7397361;19;20477;-75
2022/04/16 02:13:22;;;;;;;4.13;3.40;;;3.90;99.90;4.50;94889.00;;;;7394154;19;20128;-74
2022/04/16 02:15:50;;;;;;;4.93;3.70;;;4.00;99.90;4.60;94918.00;;;;7395336;19;20160;-75
2022/04/16 02:18:17;;;;;;;3.87;3.40;;;4.00;99.90;4.60;94917.00;;;;7394491;19;20196;-75
2022/04/16 02:20:50;;;;;;;3.60;3.27;;;4.10;99.90;4.70;94891.00;;;;7393870;19;20133;-75
2022/04/16 02:23:26;;;;;;;4.03;3.43;;;4.20;99.90;4.90;94904.00;;;;7396348;19;20185;-75
2022/04/16 02:26:02;;;;;;;3.93;3.43;;;4.30;99.90;5.00;94920.00;;;;7393666;19;20145;-75
2022/04/16 02:28:29;;;;;;;4.47;3.80;;;4.30;99.90;5.20;94927.00;;;;7393014;19;20141;-75
2022/04/16 02:30:56;;;;;;;5.93;3.37;;;4.50;98.90;5.30;94900.00;;;;7396355;19;20178;-74
2022/04/16 02:33:32;;;;;;;3.90;3.43;;;4.60;1.00;5.40;94937.00;;;;7394982;19;20153;-74
2022/04/16 02:35:59;;;;;;;3.70;3.30;;;4.70;1.00;5.40;94912.00;;;;7393461;19;20170;-75
2022/04/16 02:38:27;;;;;;;3.60;3.00;;;4.80;1.00;5.40;94920.00;;;;7394030;19;20479;-75
2022/04/16 02:41:01;;;;;;;4.10;3.70;;;4.80;1.00;5.30;94916.00;;;;7393481;19;20128;-74
2022/04/16 02:43:28;;;;;;;3.90;3.27;;;4.80;1.00;5.30;94917.00;;;;7391935;19;20141;-75
2022/04/16 02:48:48;;;;;;;4.00;3.60;;;4.70;1.00;5.30;94902.00;;;;7390507;19;20140;-75
2022/04/16 02:51:15;;;;;;;3.63;3.20;;;4.70;1.00;5.30;94899.00;;;;7395119;19;20152;-74
2022/04/16 02:53:42;;;;;;;5.30;3.50;;;4.70;1.00;5.30;94913.00;;;;7397100;19;20133;-74
2022/04/16 02:56:16;;;;;;;5.80;3.60;;;4.70;1.00;5.20;94928.00;;;;7394098;19;20165;-75
2022/04/16 02:58:43;;;;;;;3.73;3.40;;;4.60;1.00;5.30;94933.00;;;;7393847;19;20133;-75
2022/04/16 03:01:10;;;;;;;4.03;3.60;;;4.60;1.00;5.10;94902.00;;;;7394418;19;20113;-75
2022/04/16 03:03:44;;;;;;;5.27;3.50;;;4.60;1.00;5.00;94895.00;;;;7391051;19;20485;-76
2022/04/16 03:06:11;;;;;;;3.83;3.40;;;4.50;1.00;4.90;94922.00;;;;7393296;19;20157;-75
2022/04/16 03:08:38;;;;;;;4.57;3.50;;;4.40;1.00;5.00;94905.00;;;;7395212;19;20153;-75
2022/04/16 03:11:12;;;;;;;5.00;3.60;;;4.40;1.00;5.00;94901.00;;;;7384129;19;20129;-76
2022/04/16 03:13:39;;;;;;;3.90;3.40;;;4.40;1.00;5.00;94922.00;;;;7395829;19;20133;-75
2022/04/16 03:18:58;;;;;;;4.50;3.73;;;4.40;1.00;4.90;94921.00;;;;7393602;19;20768;-75
2022/04/16 03:21:25;;;;;;;4.30;3.90;;;4.30;1.00;4.80;94911.00;;;;7395673;19;20152;-75
2022/04/16 03:23:53;;;;;;;3.77;3.30;;;4.20;1.00;4.50;94912.00;;;;7393712;19;20369;-76
2022/04/16 03:26:26;;;;;;;3.90;3.40;;;4.00;1.00;4.30;94936.00;;;;7392453;19;20667;-75
2022/04/16 03:28:53;;;;;;;4.27;3.53;;;3.90;1.00;4.10;94916.00;;;;7394805;19;20129;-75
2022/04/16 03:31:20;;;;;;;5.87;3.83;;;3.70;9.80;3.90;94933.00;;;;7394666;19;20152;-75
2022/04/16 03:33:54;;;;;;;4.60;3.90;;;3.50;46.50;3.90;94934.00;;;;7395253;19;20664;-75
2022/04/16 03:36:21;;;;;;;3.83;3.40;;;3.30;99.90;3.80;94902.00;;;;7393106;19;20144;-76
2022/04/16 03:38:48;;;;;;;5.87;4.00;;;3.20;99.90;3.60;94853.00;;;;7392798;19;20129;-75
2022/04/16 03:41:22;;;;;;;5.67;4.33;;;3.10;99.90;3.80;94897.00;;;;7394108;19;20159;-74
2022/04/16 03:43:49;;;;;;;7.47;4.60;;;3.10;1.00;3.70;94896.00;;;;7394020;19;20600;-75
2022/04/16 03:46:16;;;;;;;6.17;4.70;;;3.10;1.00;3.90;94904.00;;;;7395909;19;20190;-74
2022/04/16 03:48:50;;;;;;;5.00;4.40;;;3.10;27.50;3.80;94896.00;;;;7395565;19;20136;-74
2022/04/16 03:51:17;;;;;;;4.50;3.67;;;3.10;51.60;3.70;94898.00;;;;7393451;19;20521;-77
2022/04/16 03:53:44;;;;;;;6.80;4.50;;;3.10;43.50;3.70;94913.00;;;;7394664;19;20149;-75
2022/04/16 04:01:56;;;;;;;8.37;5.00;;;3.10;99.90;3.80;94937.00;;;;7395723;19;20619;-75
2022/04/16 04:04:23;;;;;;;6.97;4.60;;;3.20;99.90;3.80;94934.00;;;;7395090;19;20166;-75
2022/04/16 04:06:50;;;;;;;5.87;4.93;;;3.10;99.90;3.90;94914.00;;;;7391665;19;20148;-75
2022/04/16 04:09:24;;;;;;;7.70;4.97;;;3.20;99.90;3.90;94901.00;;;;7392672;19;20621;-76
2022/04/16 04:11:54;;;;;;;5.90;4.73;;;3.20;99.90;3.90;94938.00;;;;7394639;19;20146;-75
2022/04/16 04:14:21;;;;;;;7.27;5.00;;;3.20;99.90;4.00;94938.00;;;;7392055;19;20157;-75
2022/04/16 04:16:54;;;;;;;6.17;4.53;;;3.30;64.60;4.00;94950.00;;;;7394385;19;20140;-75
2022/04/16 04:19:21;;;;;;;6.37;5.37;;;3.40;12.60;4.00;94926.00;;;;7395745;19;20136;-74
2022/04/16 04:21:48;;;;;;;5.80;5.10;;;3.40;1.00;4.00;94926.00;;;;7393688;19;20129;-75
2022/04/16 04:24:29;;;;;;;7.47;5.43;;;3.30;1.00;3.80;94942.00;;;;7383153;19;20564;-74
2022/04/16 04:26:58;;;;;;;5.23;4.60;;;3.30;1.00;3.80;94935.00;;;;7392590;19;20472;-74
2022/04/16 04:29:35;;;;;;;6.93;5.03;;;3.20;1.00;3.60;94920.00;;;;7391848;19;20140;-75
2022/04/16 04:32:03;;;;;;;6.67;5.03;;;3.10;1.00;3.80;94929.00;;;;7390755;19;20612;-75
2022/04/16 04:34:30;;;;;;;7.93;5.20;;;3.10;99.90;3.70;94968.00;;;;7391294;19;20222;-76
2022/04/16 04:37:04;;;;;;;5.93;5.00;;;3.10;99.90;4.10;94960.00;;;;7391538;19;20121;-75
2022/04/16 04:39:31;;;;;;;6.53;5.47;;;3.20;99.90;4.20;94969.00;;;;7392097;19;20480;-75
2022/04/16 04:41:58;;;;;;;5.73;5.13;;;3.40;99.90;4.40;94939.00;;;;7392797;19;20129;-76
2022/04/16 04:44:32;;;;;;;7.30;5.03;;;3.50;99.90;4.50;94952.00;;;;7389737;19;20593;-74
2022/04/16 04:46:59;;;;;;;6.27;4.77;;;3.70;99.90;4.70;94956.00;;;;7389968;19;20196;-74
2022/04/16 04:49:26;;;;;;;6.53;4.50;;;3.80;9.20;4.80;94980.00;;;;7390014;19;20141;-75
2022/04/16 04:52:00;;;;;;;6.60;5.47;;;3.90;1.00;4.70;94967.00;;;;7388429;19;20593;-75
2022/04/16 04:54:27;;;;;;;4.20;3.80;;;4.00;1.00;4.80;94950.00;;;;7388388;19;20482;-74
2022/04/16 04:56:54;;;;;;;5.63;4.27;;;4.10;1.00;4.90;94967.00;;;;7390323;19;20121;-75
2022/04/16 04:59:28;;;;;;;6.67;5.13;;;4.10;1.00;5.00;94960.00;;;;7389573;19;20493;-74
2022/04/16 05:01:55;;;;;;;5.20;4.37;;;4.20;99.90;5.10;94942.00;;;;7389388;19;20141;-74
2022/04/16 05:04:23;;;;;;;5.90;4.63;;;4.30;99.90;5.10;94953.00;;;;7392141;19;20132;-75
2022/04/16 05:06:56;;;;;;;5.47;4.57;;;4.30;99.90;5.30;94971.00;;;;7397541;19;20137;-75
2022/04/16 05:09:24;;;;;;;5.40;4.13;;;4.40;99.90;5.20;94948.00;;;;7395375;19;20643;-74
2022/04/16 05:11:51;;;;;;;5.87;4.77;;;4.40;99.90;5.20;94940.00;;;;7399138;19;20604;-75
2022/04/16 05:14:24;;;;;;;4.80;3.93;;;4.50;99.90;5.20;94968.00;;;;7398375;19;20138;-74
2022/04/16 05:16:51;;;;;;;5.20;4.67;;;4.50;99.90;5.40;94968.00;;;;7396152;19;20476;-75
2022/04/16 05:19:18;;;;;;;5.57;4.20;;;4.50;15.00;5.40;94972.00;;;;7397989;19;20157;-76
2022/04/16 05:21:52;;;;;;;5.13;4.27;;;4.60;1.00;5.60;94965.00;;;;7396666;19;20145;-75
2022/04/16 05:24:26;;;;;;;4.97;4.20;;;4.60;1.00;5.70;94942.00;;;;7394837;19;20156;-75
2022/04/16 05:27:00;;;;;;;5.87;4.33;;;4.70;1.00;5.60;94977.00;;;;7397588;19;20174;-74
2022/04/16 05:29:48;;;;;;;4.87;4.13;;;4.70;1.00;5.60;94921.00;;;;7396887;19;20137;-74
2022/04/16 05:32:24;;;;;;;5.37;4.30;;;4.80;1.00;5.60;94989.00;;;;7397717;19;20599;-74
2022/04/16 05:34:54;;;;;;;6.70;4.30;;;4.80;99.90;5.70;94973.00;;;;7396064;19;20141;-74
2022/04/16 05:37:28;;;;;;;5.60;4.70;;;4.80;1.00;5.90;94984.00;;;;7396431;19;20151;-75
2022/04/16 05:39:55;;;;;;;5.47;4.50;;;4.90;99.90;6.10;94967.00;;;;7398710;19;20144;-74
2022/04/16 05:42:22;;;;;;;4.40;4.00;;;5.10;1.00;6.20;94974.00;;;;7400191;19;20150;-75
2022/04/16 05:45:01;;;;;;;5.50;4.40;;;5.20;99.90;6.30;94977.00;;;;7397203;19;20604;-75
2022/04/16 05:47:28;;;;;;;4.97;3.70;;;5.30;99.90;6.30;94982.00;;;;7396872;19;20149;-75
2022/04/16 05:49:55;;;;;;;5.00;3.90;;;5.40;99.90;6.30;94964.00;;;;7394337;19;20604;-74
2022/04/16 05:52:31;;;;;;;5.00;4.20;;;5.40;47.10;6.30;94970.00;;;;7398283;19;20141;-75
2022/04/16 05:54:59;;;;;;;5.77;3.93;;;5.40;66.50;6.30;94987.00;;;;7401469;19;20604;-75
2022/04/16 05:57:28;;;;;;;7.13;4.53;;;5.40;81.50;6.40;94969.00;;;;7400307;19;20608;-74
2022/04/16 06:00:02;;;;;;;5.07;4.43;;;5.50;10.60;6.40;94972.00;;;;7400068;19;20144;-75
2022/04/16 06:02:31;;;;;;;5.40;4.20;;;5.50;1.00;6.50;94977.00;;;;7392094;19;20152;-76
2022/04/16 06:04:59;;;;;;;7.40;4.40;;;5.60;1.00;6.50;94985.00;;;;7401288;19;20640;-75
2022/04/16 06:07:34;;;;;;;5.70;4.00;;;5.60;1.00;6.50;95014.00;;;;7400564;19;20163;-75
2022/04/16 06:15:00;;;;;;;5.50;4.50;;;5.80;1.00;6.70;94993.00;;;;7425317;19;20159;-74
2022/04/16 06:17:28;;;;;;;4.80;4.40;;;5.90;1.00;6.70;95007.00;;;;7429519;19;20179;-74
2022/04/16 06:20:08;;;;;;;5.53;4.43;;;5.90;1.00;6.70;94995.00;;;;7431456;19;20594;-75
2022/04/16 06:22:35;;;;;;;5.93;4.47;;;5.90;1.00;6.80;94993.00;;;;7431874;19;20144;-75
2022/04/16 06:25:09;;;;;;;6.03;4.80;;;5.90;1.00;7.20;95005.00;;;;7429094;19;20152;-74
2022/04/16 06:27:39;;;;;;;6.80;4.30;;;6.00;1.00;7.30;95010.00;;;;7429798;19;20129;-75
2022/04/16 06:30:09;;;;;;;6.40;4.77;;;6.20;1.00;7.30;95014.00;;;;7428665;19;20140;-75
2022/04/16 06:32:43;;;;;;;5.20;4.60;;;6.20;99.90;7.20;95005.00;;;;7429358;19;20143;-75
2022/04/16 06:35:12;;;;;;;5.77;4.10;;;6.30;99.90;7.20;95002.00;;;;7430705;19;20159;-75
2022/04/16 06:37:44;;;;;;;5.63;4.60;;;6.40;99.90;7.30;95007.00;;;;7428552;19;20163;-74
2022/04/16 06:40:17;;;;;;;5.63;4.73;;;6.50;99.90;7.30;94994.00;;;;7429709;19;20191;-75
2022/04/16 06:42:45;;;;;;;7.87;4.73;;;6.60;99.90;7.60;94978.00;;;;7427013;19;20128;-74
2022/04/16 06:45:13;;;;;;;6.07;4.40;;;6.60;99.90;7.40;94990.00;;;;7429053;19;20160;-74
2022/04/16 06:47:50;;;;;;;5.60;4.13;;;6.60;99.90;7.50;95002.00;;;;7428351;19;20151;-75
2022/04/16 06:50:18;;;;;;;5.90;4.10;;;6.60;99.90;7.40;95034.00;;;;7427954;19;20148;-75
2022/04/16 06:52:46;;;;;;;4.50;4.07;;;6.50;99.90;7.30;95014.00;;;;7428545;19;20140;-76
2022/04/16 06:55:19;;;;;;;6.43;4.47;;;6.60;99.90;7.30;94996.00;;;;7430856;19;20151;-75
2022/04/16 06:57:46;;;;;;;4.87;4.20;;;6.50;52.70;7.40;95024.00;;;;7425663;19;20621;-75
2022/04/16 07:00:14;;;;;;;6.53;4.13;;;6.50;99.90;7.40;95034.00;;;;7424728;19;20598;-75
2022/04/16 07:02:48;;;;;;;5.10;4.17;;;6.50;58.40;7.30;95031.00;;;;7428545;19;20124;-76
2022/04/16 07:05:22;;;;;;;5.27;4.50;;;6.60;99.90;7.40;95032.00;;;;7429701;19;20594;-75
2022/04/16 07:07:56;;;;;;;6.67;4.43;;;6.50;28.80;7.30;95009.00;;;;7426617;19;20140;-75
2022/04/16 07:10:30;;;;;;;7.40;4.33;;;6.40;92.00;7.40;95035.00;;;;7422413;19;20184;-76
2022/04/16 07:13:03;;;;;;;7.47;4.53;;;6.60;28.10;7.30;95010.00;;;;7424292;19;20148;-75
2022/04/16 07:15:34;;;;;;;6.60;4.10;;;6.60;99.90;7.50;95034.00;;;;7427004;19;20211;-76
2022/04/16 07:18:02;;;;;;;7.00;4.50;;;6.70;29.60;7.60;95033.00;;;;7428974;19;20587;-74
2022/04/16 07:20:36;;;;;;;6.37;5.67;;;6.80;1.00;7.50;95000.00;;;;7422551;19;20159;-76
2022/04/16 07:23:05;;;;;;;6.23;5.43;;;6.80;1.00;7.40;95021.00;;;;7397140;19;20657;-75
2022/04/16 07:25:34;;;;;;;6.77;4.97;;;6.70;1.00;7.50;94976.00;;;;7398278;19;20149;-75
2022/04/16 07:28:09;;;;;;;6.43;5.57;;;6.70;1.00;7.80;95039.00;;;;7397012;19;20147;-75
2022/04/16 07:30:36;;;;;;;9.57;5.57;;;6.90;53.70;8.10;95036.00;;;;7395565;19;20145;-74
2022/04/16 07:33:03;;;;;;;6.30;5.30;;;7.00;12.00;8.20;95045.00;;;;7400350;19;20133;-74
2022/04/16 07:35:38;;;;;;;5.00;4.50;;;7.20;1.00;8.30;95041.00;;;;7398043;19;20160;-74
2022/04/16 07:38:06;;;;;;;8.27;4.60;;;7.40;1.00;8.20;95025.00;;;;7399837;19;20140;-75
2022/04/16 07:40:36;;;;;;;6.00;5.23;;;7.40;1.00;8.30;95044.00;;;;7400975;19;20576;-75
2022/04/16 07:43:10;;;;;;;6.80;5.27;;;7.30;1.00;8.30;95026.00;;;;7396464;19;20453;-75
2022/04/16 07:45:38;;;;;;;5.43;4.83;;;7.50;1.00;8.50;95014.00;;;;7399052;19;20144;-75
2022/04/16 07:48:09;;;;;;;7.80;4.67;;;7.60;1.00;8.60;95017.00;;;;7400159;19;20153;-75
2022/04/16 07:50:43;;;;;;;5.70;4.80;;;7.60;1.00;8.30;95016.00;;;;7396651;19;20619;-76
2022/04/16 07:53:11;;;;;;;5.53;5.00;;;7.50;99.90;8.50;95021.00;;;;7397391;19;20605;-76
2022/04/16 07:55:39;;;;;;;7.23;5.47;;;7.50;1.00;8.80;95007.00;;;;7397532;19;20610;-76
2022/04/16 07:58:13;;;;;;;7.53;4.97;;;7.60;99.90;8.80;95021.00;;;;7399348;19;20121;-76
2022/04/16 08:00:40;;;;;;;6.73;5.63;;;7.80;1.00;9.40;95040.00;;;;7396755;19;20148;-74
2022/04/16 08:03:07;;;;;;;5.57;4.43;;;8.10;1.00;9.40;95027.00;;;;7398296;19;20138;-75
2022/04/16 08:05:41;;;;;;;6.07;5.03;;;8.30;99.90;9.20;95060.00;;;;7397392;19;20155;-75
2022/04/16 08:08:10;;;;;;;5.17;4.67;;;8.20;99.90;8.90;95036.00;;;;7398344;19;20575;-75
2022/04/16 08:10:37;;;;;;;5.67;4.70;;;8.10;99.90;9.30;95045.00;;;;7395292;19;20168;-74
2022/04/16 08:13:12;;;;;;;7.70;5.53;;;8.20;99.90;9.20;95047.00;;;;7398423;19;20151;-74
2022/04/16 08:15:39;;;;;;;6.70;5.10;;;8.30;99.90;9.50;95032.00;;;;7397165;19;20627;-75
2022/04/16 08:18:07;;;;;;;7.50;5.03;;;8.40;99.90;9.50;95025.00;;;;7399156;19;20144;-74
2022/04/16 08:20:40;;;;;;;6.07;4.90;;;8.40;99.90;9.80;95074.00;;;;7398734;19;20140;-75
2022/04/16 08:23:07;;;;;;;5.07;4.57;;;8.50;99.90;10.00;95060.00;;;;7398184;19;20591;-74
2022/04/16 08:28:10;;;;;;;7.03;5.23;;;9.00;99.90;10.30;95057.00;;;;7396015;19;20152;-75
2022/04/16 08:30:37;;;;;;;6.77;5.37;;;8.90;99.90;10.20;95044.00;;;;7395521;19;20249;-74
2022/04/16 08:33:07;;;;;;;8.30;5.50;;;9.00;99.90;10.20;95069.00;;;;7394223;19;20157;-74
2022/04/16 08:35:42;;;;;;;6.20;5.33;;;9.00;99.90;9.80;95085.00;;;;7397817;19;20152;-74
2022/04/16 08:38:11;;;;;;;6.67;5.67;;;9.10;99.90;9.80;95094.00;;;;7393441;19;20599;-76
2022/04/16 08:40:40;;;;;;;6.40;5.57;;;9.20;99.90;9.70;95091.00;;;;7396265;19;20576;-74
2022/04/16 08:43:14;;;;;;;6.73;5.67;;;9.10;99.90;9.90;95094.00;;;;7393658;19;20137;-74
2022/04/16 08:45:42;;;;;;;7.03;5.70;;;9.00;99.90;10.40;95093.00;;;;7396047;19;20149;-74
2022/04/16 08:48:11;;;;;;;7.70;5.60;;;9.10;99.90;10.90;95090.00;;;;7392670;19;20149;-75
2022/04/16 08:50:48;;;;;;;6.07;5.47;;;9.30;99.90;10.80;95093.00;;;;7397227;19;20614;-76
2022/04/16 08:53:15;;;;;;;7.17;5.57;;;9.40;99.90;10.20;95096.00;;;;7393756;19;20626;-74
2022/04/16 08:55:42;;;;;;;7.27;6.00;;;9.30;99.90;9.80;95096.00;;;;7392917;19;20140;-74
2022/04/16 08:58:16;;;;;;;7.37;5.87;;;9.00;99.90;10.10;95090.00;;;;7393232;19;20137;-74
2022/04/16 09:00:43;;;;;;;7.10;5.32;;;9.00;99.90;11.10;95092.00;;;;7394193;19;20168;-75
2022/04/16 09:03:11;;;;;;;110.70;9.98;;;9.50;99.90;11.40;95085.00;;;;7394283;19;20196;-76
2022/04/16 09:05:45;;;;;;;8.02;5.13;;;9.80;99.90;11.00;95083.00;;;;7396366;19;20623;-75
2022/04/16 09:08:12;;;;;;;8.77;5.65;;;9.80;99.90;10.60;95078.00;;;;7395678;19;20687;-74
2022/04/16 09:10:43;;;;;;;6.75;6.05;;;9.70;99.90;10.50;95088.00;;;;7395089;19;20188;-74
2022/04/16 09:13:21;;;;;;;9.13;5.68;;;9.50;99.90;10.30;95091.00;;;;7395852;19;20129;-75
2022/04/16 09:15:48;;;;;;;9.60;5.35;;;9.30;99.90;10.50;95083.00;;;;7396723;19;20132;-75
2022/04/16 09:18:17;;;;;;;11.07;5.83;;;9.30;99.90;10.80;95087.00;;;;7395484;19;20128;-76
2022/04/16 09:20:52;;;;;;;5.72;5.13;;;9.40;99.90;10.60;95079.00;;;;7395795;19;20145;-74
2022/04/16 09:23:22;;;;;;;6.95;6.00;;;9.30;99.90;9.90;95075.00;;;;7392540;19;20200;-74
2022/04/16 09:25:50;;;;;;;6.97;6.03;;;9.20;99.90;9.60;95089.00;;;;7393183;19;20125;-73
2022/04/16 09:28:24;;;;;;;6.90;5.80;;;9.00;99.90;9.30;95078.00;;;;7394523;19;20512;-75
2022/04/16 09:30:56;;;;;;;6.80;5.67;;;8.80;99.90;9.10;95106.00;;;;7394752;19;21115;-73
2022/04/16 09:33:24;;;;;;;7.60;5.87;;;8.30;1.00;9.20;95090.00;;;;7395066;19;20212;-74
2022/04/16 09:35:57;;;;;;;7.10;6.13;;;8.30;1.00;8.90;95117.00;;;;7395001;19;20160;-74
2022/04/16 09:38:27;;;;;;;6.77;5.60;;;8.20;1.00;9.00;95086.00;;;;7394657;19;20133;-73
2022/04/16 09:40:54;;;;;;;6.83;5.97;;;8.20;1.00;8.90;95101.00;;;;7394455;19;20224;-74
2022/04/16 09:43:36;;;;;;;6.73;6.03;;;8.10;1.00;8.80;95081.00;;;;7392513;19;20537;-75
2022/04/16 09:46:12;;;;;;;9.33;6.37;;;8.20;1.00;9.00;95105.00;;;;7394517;19;20152;-74
2022/04/16 09:48:50;;;;;;;6.83;6.13;;;8.20;1.00;8.40;95113.00;;;;7395822;19;20585;-73
2022/04/16 09:51:23;;;;;;;8.23;6.50;;;8.00;1.00;8.50;95101.00;;;;7394047;19;20200;-73
2022/04/16 09:54:05;;;;;;;7.93;6.57;;;7.80;1.00;8.60;95102.00;;;;7395119;19;20144;-75
2022/04/16 09:56:36;;;;;;;8.87;6.23;;;7.70;99.90;10.20;95101.00;;;;7396419;19;20132;-74
2022/04/16 09:59:12;;;;;;;6.93;5.70;;;8.30;99.90;11.00;95099.00;;;;7395808;19;20145;-75
2022/04/16 10:01:46;;;;;;;8.00;6.30;;;9.10;99.90;12.00;95089.00;;;;7394543;19;20125;-73
2022/04/16 10:04:21;;;;;;;6.50;5.80;;;9.80;1.00;12.00;95101.00;;;;7397724;19;20133;-73
2022/04/16 10:06:51;;;;;;;7.57;5.38;;;10.40;67.50;11.40;95078.00;;;;7394443;19;20148;-74
2022/04/16 10:09:22;;;;;;;7.45;5.80;;;10.30;12.60;10.90;95125.00;;;;7392304;19;20176;-74
2022/04/16 10:15:17;;;;;;;6.03;5.43;;;9.70;99.90;9.90;95134.00;;;;7390147;19;20622;-73
2022/04/16 10:17:52;;;;;;;9.00;6.00;;;9.30;99.90;9.70;95122.00;;;;7391411;19;20174;-73
2022/04/16 10:20:23;;;;;;;7.22;6.20;;;9.10;99.90;9.30;95134.00;;;;7391153;19;20628;-73
2022/04/16 10:23:05;;;;;;;7.13;6.10;;;8.80;99.90;9.10;95153.00;;;;7391881;19;20128;-73
2022/04/16 10:25:44;;;;;;;8.57;6.20;;;8.50;1.00;8.80;95141.00;;;;7392002;19;20166;-74
2022/04/16 10:28:23;;;;;;;8.47;6.90;;;8.20;1.00;8.50;95141.00;;;;7389911;19;20216;-73
2022/04/16 10:30:57;;;;;;;10.93;6.60;;;7.90;1.00;8.30;95131.00;;;;7391861;19;20143;-74
2022/04/16 10:33:28;;;;;;;8.77;6.97;;;7.60;1.00;8.00;95157.00;;;;7391816;19;20137;-74
2022/04/16 10:36:02;;;;;;;8.10;7.10;;;7.40;99.90;8.00;95133.00;;;;7385872;19;20217;-75
2022/04/16 10:38:41;;;;;;;11.20;7.63;;;7.30;99.90;8.10;95153.00;;;;7388828;19;20165;-75
2022/04/16 10:41:14;;;;;;;8.77;6.90;;;7.30;99.90;8.90;95139.00;;;;7389607;19;20129;-74
2022/04/16 10:43:57;;;;;;;10.17;7.57;;;7.70;50.40;10.10;95144.00;;;;7388196;19;20187;-73
2022/04/16 10:46:24;;;;;;;8.83;6.80;;;8.30;1.00;10.80;95105.00;;;;7391795;19;20172;-75
2022/04/16 10:49:07;;;;;;;9.67;6.87;;;9.10;99.90;12.50;95125.00;;;;7393044;19;20133;-74
2022/04/16 10:51:35;;;;;;;8.57;6.88;;;10.10;99.90;13.10;95091.00;;;;7392784;19;20610;-75
2022/04/16 10:54:16;;;;;;;8.00;6.10;;;10.90;98.60;14.50;95102.00;;;;7392785;19;20132;-72
2022/04/16 10:56:53;;;;;;;7.05;5.47;;;12.00;28.30;14.30;95134.00;;;;7394804;19;20180;-74
2022/04/16 10:59:41;;;;;;;5.97;5.38;;;12.70;1.00;13.30;95120.00;;;;7398430;19;20633;-74
2022/04/16 11:02:23;;;;;;;7.43;5.30;;;12.30;1.00;12.80;95124.00;;;;7399065;19;20212;-73
2022/04/16 11:05:09;;;;;;;6.15;5.30;;;11.90;1.00;11.80;95096.00;;;;7399939;19;20471;-74
2022/04/16 11:07:40;;;;;;;7.10;5.65;;;11.50;1.00;12.90;95100.00;;;;7392188;19;20132;-74
2022/04/16 11:10:28;;;;;;;6.57;5.88;;;11.60;1.00;13.10;95099.00;;;;7395439;19;20176;-73
2022/04/16 11:13:05;;;;;;;6.45;5.72;;;11.60;1.00;13.90;95099.00;;;;7401003;19;20647;-74
2022/04/16 11:15:41;;;;;;;7.57;5.03;;;11.90;1.00;15.20;95091.00;;;;7398808;19;20631;-74
2022/04/16 11:18:09;;;;;;;4.70;4.20;;;13.20;1.00;13.50;95103.00;;;;7398031;19;20635;-75
2022/04/16 11:20:36;;;;;;;4.75;4.25;;;13.10;1.00;12.80;95107.00;;;;7399578;19;20133;-74
2022/04/16 11:23:18;;;;;;;4.90;4.00;;;12.40;1.00;12.60;95074.00;;;;7400507;19;20144;-74
2022/04/16 11:34:20;;;;;;;6.10;4.60;;;12.10;1.00;12.70;95073.00;;;;7397041;19;20133;-73
2022/04/16 11:36:51;;;;;;;7.07;4.82;;;11.80;1.00;11.90;95090.00;;;;7398158;19;20160;-74
2022/04/16 11:39:25;;;;;;;5.40;4.85;;;11.40;1.00;12.20;95121.00;;;;7398512;19;20153;-73
2022/04/16 11:42:02;;;;;;;5.97;4.32;;;11.30;1.00;13.10;95101.00;;;;7396627;19;20630;-73
2022/04/16 11:44:42;;;;;;;5.85;5.15;;;11.60;1.00;14.00;95114.00;;;;7395718;19;20140;-72
2022/04/16 11:47:28;;;;;;;5.32;4.63;;;12.30;1.00;13.30;95086.00;;;;7396786;19;20237;-74
2022/04/16 11:50:01;;;;;;;5.78;4.45;;;12.30;1.00;13.20;95110.00;;;;7396153;19;20575;-73
2022/04/16 11:52:51;;;;;;;5.95;5.35;;;12.00;1.00;13.20;95086.00;;;;7395171;19;20900;-73
2022/04/16 11:55:20;;;;;;;6.75;5.30;;;12.10;1.00;13.50;95092.00;;;;7397423;19;20632;-71
2022/04/16 11:57:53;;;;;;;5.53;4.97;;;12.30;1.00;14.30;95097.00;;;;7398279;19;20156;-74
2022/04/16 12:00:22;;;;;;;6.68;5.97;;;12.60;1.00;14.00;95129.00;;;;7398936;19;20244;-73
2022/04/16 12:02:56;;;;;;;6.90;5.35;;;13.00;1.00;13.90;95123.00;;;;7398677;19;20196;-73